Accueil
METAR-TAF:

METAR-TAF

Aéroports :

Aéroport international de Honiara

Honiara, Guadalcanal, Iles Salomon

latitude: 09-25S, longitude: 160-03E, altitude: 8 m

Observation

Le bulletin a été fait il y a 1 heure et 3 minutes, à 15:00 UTC
Vent calme
Température 24°C
Humidité 100%
Pression 1011 hPa
Visibilité 10 km ou plus
Quelques nuages à une hauteur de 1500 ft
brume sèche

METAR: AGGH 211500Z 00000KT 9999 HZ FEW015 24/24 Q1011

Heure: 03:03 (16:03 UTC)

Prévision

Le bulletin a été fait il y a 4 heures et 53 minutes, à 11:10 UTC
Prévision valable du 21 à 12 UTC au 22 à 12 UTC
Vent 3 kt de direction variable
Visibilité: 1011 m
Quelques nuages à une hauteur de 1600 ft
Nuages épars à une hauteur de 2800 ft

TAF: AGGH 211110Z 2112/2212 VRB03KT 9999 FEW016 SCT028 T 25 24 23 26 Q 1012 1010 1009 1011

Observations et prévisions météorologiques de plus de 4000 aéroports (messages METAR et TAF).

Les stations disponibles sont représentées par des disques jaunes et rouges sur la carte.

Passer la souris dessus pour voir le nom de la station.

Cliquer dessus pour voir les observations et prévisions météorologiques.

Pour changer de carte: cliquez sur les boutons verts avec une croix noire pour zoomer, sur le bouton vert avec un tiret pour effectuer un zoom arrière, ou sur les flèches vertes pour les cartes adjacentes.


METAR-TAF: